Terminal Aerodrome Forecast
Issued by NWS

Home | Current Version | Previous Version | Text Only | Print | Product List | Glossary On
Versions: 1 2 3 4 5 6 7 8 9 10 11 12 13 14 15 16 17 18
395
FTUS43 KBIS 051236 AAA
TAFDIK
TAF AMD
KDIK 051236Z 0513/0612 29015KT P6SM OVC015
     FM051600 30017G25KT P6SM VCSH OVC015
     FM051800 30020G29KT 4SM BLSN VCSH OVC015
     FM060100 30025G32KT 2SM BLSN VCSH OVC020
     FM060900 30017G26KT P6SM BKN015=

USA.gov is the U.S. government's official web portal to all federal, state and local government web resources and services.